sensor_id;sensor_type;location;lat;lon;timestamp;P1;durP1;ratioP1;P2;durP2;ratioP2
19456;SDS011;9867;48.094;11.478;2023-02-18T00:01:07;3.10;;;2.80;;
19456;SDS011;9867;48.094;11.478;2023-02-18T00:03:35;2.77;;;2.57;;
19456;SDS011;9867;48.094;11.478;2023-02-18T00:06:08;3.70;;;2.70;;
19456;SDS011;9867;48.094;11.478;2023-02-18T00:08:37;3.00;;;2.70;;
19456;SDS011;9867;48.094;11.478;2023-02-18T00:11:04;3.10;;;2.70;;
19456;SDS011;9867;48.094;11.478;2023-02-18T00:13:30;5.33;;;2.90;;
19456;SDS011;9867;48.094;11.478;2023-02-18T00:15:59;3.27;;;2.70;;
19456;SDS011;9867;48.094;11.478;2023-02-18T00:18:26;2.83;;;2.40;;
19456;SDS011;9867;48.094;11.478;2023-02-18T00:20:52;2.50;;;2.30;;
19456;SDS011;9867;48.094;11.478;2023-02-18T00:23:19;2.80;;;2.50;;
19456;SDS011;9867;48.094;11.478;2023-02-18T00:25:46;3.77;;;2.73;;
19456;SDS011;9867;48.094;11.478;2023-02-18T00:28:12;3.13;;;2.40;;
19456;SDS011;9867;48.094;11.478;2023-02-18T00:30:39;2.60;;;2.40;;
19456;SDS011;9867;48.094;11.478;2023-02-18T00:33:06;2.70;;;2.50;;
19456;SDS011;9867;48.094;11.478;2023-02-18T00:35:32;2.50;;;2.30;;
19456;SDS011;9867;48.094;11.478;2023-02-18T00:37:58;2.67;;;2.10;;
19456;SDS011;9867;48.094;11.478;2023-02-18T00:40:25;2.97;;;2.27;;
19456;SDS011;9867;48.094;11.478;2023-02-18T00:42:52;3.97;;;2.60;;
19456;SDS011;9867;48.094;11.478;2023-02-18T00:45:18;2.60;;;2.33;;
19456;SDS011;9867;48.094;11.478;2023-02-18T00:47:45;2.67;;;2.47;;
19456;SDS011;9867;48.094;11.478;2023-02-18T00:50:12;2.90;;;2.30;;
19456;SDS011;9867;48.094;11.478;2023-02-18T00:52:38;3.70;;;2.30;;
19456;SDS011;9867;48.094;11.478;2023-02-18T00:55:06;2.70;;;2.50;;
19456;SDS011;9867;48.094;11.478;2023-02-18T00:57:32;2.40;;;2.20;;
19456;SDS011;9867;48.094;11.478;2023-02-18T00:59:59;3.17;;;2.50;;
19456;SDS011;9867;48.094;11.478;2023-02-18T01:02:26;4.43;;;2.33;;
19456;SDS011;9867;48.094;11.478;2023-02-18T01:04:52;2.60;;;2.40;;
19456;SDS011;9867;48.094;11.478;2023-02-18T01:07:19;3.33;;;2.70;;
19456;SDS011;9867;48.094;11.478;2023-02-18T01:09:45;3.20;;;2.90;;
19456;SDS011;9867;48.094;11.478;2023-02-18T01:12:12;3.07;;;2.77;;
19456;SDS011;9867;48.094;11.478;2023-02-18T01:14:38;3.30;;;3.00;;
19456;SDS011;9867;48.094;11.478;2023-02-18T01:17:08;3.03;;;2.73;;
19456;SDS011;9867;48.094;11.478;2023-02-18T01:19:35;4.37;;;3.10;;
19456;SDS011;9867;48.094;11.478;2023-02-18T01:22:01;3.87;;;2.97;;
19456;SDS011;9867;48.094;11.478;2023-02-18T01:24:28;3.67;;;2.90;;
19456;SDS011;9867;48.094;11.478;2023-02-18T01:26:54;4.03;;;3.20;;
19456;SDS011;9867;48.094;11.478;2023-02-18T01:29:21;4.80;;;3.30;;
19456;SDS011;9867;48.094;11.478;2023-02-18T01:31:47;3.40;;;3.10;;
19456;SDS011;9867;48.094;11.478;2023-02-18T01:34:14;3.27;;;2.97;;
19456;SDS011;9867;48.094;11.478;2023-02-18T01:36:41;3.90;;;2.90;;
19456;SDS011;9867;48.094;11.478;2023-02-18T01:39:07;3.40;;;3.10;;
19456;SDS011;9867;48.094;11.478;2023-02-18T01:41:34;4.07;;;3.00;;
19456;SDS011;9867;48.094;11.478;2023-02-18T01:44:10;4.20;;;2.93;;
19456;SDS011;9867;48.094;11.478;2023-02-18T01:46:38;3.60;;;3.20;;
19456;SDS011;9867;48.094;11.478;2023-02-18T01:49:04;4.60;;;3.10;;
19456;SDS011;9867;48.094;11.478;2023-02-18T01:51:34;3.80;;;2.80;;
19456;SDS011;9867;48.094;11.478;2023-02-18T01:54:05;4.93;;;2.80;;
19456;SDS011;9867;48.094;11.478;2023-02-18T01:56:35;4.20;;;2.80;;
19456;SDS011;9867;48.094;11.478;2023-02-18T01:59:06;3.57;;;3.00;;
19456;SDS011;9867;48.094;11.478;2023-02-18T02:01:34;3.00;;;2.80;;
19456;SDS011;9867;48.094;11.478;2023-02-18T02:04:01;3.03;;;2.83;;
19456;SDS011;9867;48.094;11.478;2023-02-18T02:06:30;3.47;;;2.90;;
19456;SDS011;9867;48.094;11.478;2023-02-18T02:08:58;2.80;;;2.57;;
19456;SDS011;9867;48.094;11.478;2023-02-18T02:11:39;3.27;;;2.97;;
19456;SDS011;9867;48.094;11.478;2023-02-18T02:14:21;2.77;;;2.50;;
19456;SDS011;9867;48.094;11.478;2023-02-18T02:16:57;3.10;;;2.80;;
19456;SDS011;9867;48.094;11.478;2023-02-18T02:19:42;2.77;;;2.57;;
19456;SDS011;9867;48.094;11.478;2023-02-18T02:22:43;2.83;;;2.53;;
19456;SDS011;9867;48.094;11.478;2023-02-18T02:31:33;2.60;;;2.20;;
19456;SDS011;9867;48.094;11.478;2023-02-18T02:34:22;2.30;;;2.20;;
19456;SDS011;9867;48.094;11.478;2023-02-18T02:37:01;2.60;;;2.40;;
19456;SDS011;9867;48.094;11.478;2023-02-18T02:39:36;2.27;;;2.10;;
19456;SDS011;9867;48.094;11.478;2023-02-18T02:42:09;2.57;;;2.40;;
19456;SDS011;9867;48.094;11.478;2023-02-18T02:44:45;2.80;;;2.10;;
19456;SDS011;9867;48.094;11.478;2023-02-18T02:47:20;2.40;;;2.20;;
19456;SDS011;9867;48.094;11.478;2023-02-18T02:49:59;3.03;;;2.27;;
19456;SDS011;9867;48.094;11.478;2023-02-18T02:52:29;2.47;;;2.07;;
19456;SDS011;9867;48.094;11.478;2023-02-18T02:54:58;2.27;;;1.70;;
19456;SDS011;9867;48.094;11.478;2023-02-18T02:57:42;2.00;;;1.90;;
19456;SDS011;9867;48.094;11.478;2023-02-18T03:00:16;1.97;;;1.87;;
19456;SDS011;9867;48.094;11.478;2023-02-18T03:02:57;1.90;;;1.80;;
19456;SDS011;9867;48.094;11.478;2023-02-18T03:05:53;2.00;;;1.90;;
19456;SDS011;9867;48.094;11.478;2023-02-18T03:08:38;1.87;;;1.77;;
19456;SDS011;9867;48.094;11.478;2023-02-18T03:11:10;1.70;;;1.60;;
19456;SDS011;9867;48.094;11.478;2023-02-18T03:13:46;2.10;;;1.70;;
19456;SDS011;9867;48.094;11.478;2023-02-18T03:16:23;2.33;;;2.13;;
19456;SDS011;9867;48.094;11.478;2023-02-18T03:18:55;1.77;;;1.67;;
19456;SDS011;9867;48.094;11.478;2023-02-18T03:21:28;2.00;;;1.70;;
19456;SDS011;9867;48.094;11.478;2023-02-18T03:24:01;1.90;;;1.80;;
19456;SDS011;9867;48.094;11.478;2023-02-18T03:26:32;2.40;;;2.20;;
19456;SDS011;9867;48.094;11.478;2023-02-18T03:29:03;1.60;;;1.60;;
19456;SDS011;9867;48.094;11.478;2023-02-18T03:31:33;1.77;;;1.67;;
19456;SDS011;9867;48.094;11.478;2023-02-18T03:34:02;1.93;;;1.83;;
19456;SDS011;9867;48.094;11.478;2023-02-18T03:36:32;2.93;;;2.13;;
19456;SDS011;9867;48.094;11.478;2023-02-18T03:39:02;2.40;;;1.90;;
19456;SDS011;9867;48.094;11.478;2023-02-18T03:41:32;1.57;;;1.47;;
19456;SDS011;9867;48.094;11.478;2023-02-18T03:44:00;2.20;;;2.10;;
19456;SDS011;9867;48.094;11.478;2023-02-18T03:46:28;2.23;;;1.90;;
19456;SDS011;9867;48.094;11.478;2023-02-18T03:48:57;1.93;;;1.83;;
19456;SDS011;9867;48.094;11.478;2023-02-18T03:51:23;2.20;;;2.10;;
19456;SDS011;9867;48.094;11.478;2023-02-18T03:53:50;1.97;;;1.87;;
19456;SDS011;9867;48.094;11.478;2023-02-18T03:56:17;2.50;;;2.30;;
19456;SDS011;9867;48.094;11.478;2023-02-18T03:58:46;2.80;;;2.30;;
19456;SDS011;9867;48.094;11.478;2023-02-18T04:01:12;2.30;;;2.10;;
19456;SDS011;9867;48.094;11.478;2023-02-18T04:03:39;2.67;;;2.40;;
19456;SDS011;9867;48.094;11.478;2023-02-18T04:06:06;2.37;;;2.20;;
19456;SDS011;9867;48.094;11.478;2023-02-18T04:08:33;2.33;;;2.13;;
19456;SDS011;9867;48.094;11.478;2023-02-18T04:11:00;2.60;;;2.40;;
19456;SDS011;9867;48.094;11.478;2023-02-18T04:13:27;2.20;;;2.10;;
19456;SDS011;9867;48.094;11.478;2023-02-18T04:15:53;2.30;;;2.10;;
19456;SDS011;9867;48.094;11.478;2023-02-18T04:18:19;2.37;;;2.17;;
19456;SDS011;9867;48.094;11.478;2023-02-18T04:20:46;2.23;;;1.93;;
19456;SDS011;9867;48.094;11.478;2023-02-18T04:23:13;2.10;;;2.00;;
19456;SDS011;9867;48.094;11.478;2023-02-18T04:25:39;2.30;;;2.20;;
19456;SDS011;9867;48.094;11.478;2023-02-18T04:28:06;2.40;;;2.20;;
19456;SDS011;9867;48.094;11.478;2023-02-18T04:30:35;2.13;;;1.93;;
19456;SDS011;9867;48.094;11.478;2023-02-18T04:33:02;2.20;;;2.00;;
19456;SDS011;9867;48.094;11.478;2023-02-18T04:35:28;1.87;;;1.77;;
19456;SDS011;9867;48.094;11.478;2023-02-18T04:37:55;1.80;;;1.70;;
19456;SDS011;9867;48.094;11.478;2023-02-18T04:40:21;2.10;;;2.00;;
19456;SDS011;9867;48.094;11.478;2023-02-18T04:42:49;1.83;;;1.73;;
19456;SDS011;9867;48.094;11.478;2023-02-18T04:45:17;1.90;;;1.80;;
19456;SDS011;9867;48.094;11.478;2023-02-18T04:47:43;3.10;;;2.00;;
19456;SDS011;9867;48.094;11.478;2023-02-18T04:50:10;2.00;;;1.87;;
19456;SDS011;9867;48.094;11.478;2023-02-18T04:52:36;1.90;;;1.80;;
19456;SDS011;9867;48.094;11.478;2023-02-18T04:55:03;2.13;;;2.03;;
19456;SDS011;9867;48.094;11.478;2023-02-18T04:57:29;2.50;;;2.30;;
19456;SDS011;9867;48.094;11.478;2023-02-18T04:59:56;1.70;;;1.60;;
19456;SDS011;9867;48.094;11.478;2023-02-18T05:02:23;1.90;;;1.70;;
19456;SDS011;9867;48.094;11.478;2023-02-18T05:04:49;1.77;;;1.67;;
19456;SDS011;9867;48.094;11.478;2023-02-18T05:07:16;1.70;;;1.60;;
19456;SDS011;9867;48.094;11.478;2023-02-18T05:09:42;1.80;;;1.70;;
19456;SDS011;9867;48.094;11.478;2023-02-18T05:12:09;1.60;;;1.50;;
19456;SDS011;9867;48.094;11.478;2023-02-18T05:14:35;2.17;;;1.70;;
19456;SDS011;9867;48.094;11.478;2023-02-18T05:17:02;1.70;;;1.60;;
19456;SDS011;9867;48.094;11.478;2023-02-18T05:19:29;1.90;;;1.80;;
19456;SDS011;9867;48.094;11.478;2023-02-18T05:21:55;1.50;;;1.40;;
19456;SDS011;9867;48.094;11.478;2023-02-18T05:24:22;4.10;;;3.73;;
19456;SDS011;9867;48.094;11.478;2023-02-18T05:26:48;3.40;;;3.10;;
19456;SDS011;9867;48.094;11.478;2023-02-18T05:29:15;1.30;;;1.20;;
19456;SDS011;9867;48.094;11.478;2023-02-18T05:31:41;1.10;;;1.10;;
19456;SDS011;9867;48.094;11.478;2023-02-18T05:34:08;1.10;;;1.10;;
19456;SDS011;9867;48.094;11.478;2023-02-18T05:36:35;1.47;;;1.37;;
19456;SDS011;9867;48.094;11.478;2023-02-18T05:39:01;1.23;;;1.23;;
19456;SDS011;9867;48.094;11.478;2023-02-18T05:41:28;1.20;;;1.10;;
19456;SDS011;9867;48.094;11.478;2023-02-18T05:43:54;0.97;;;0.97;;
19456;SDS011;9867;48.094;11.478;2023-02-18T05:46:39;1.00;;;1.00;;
19456;SDS011;9867;48.094;11.478;2023-02-18T05:49:05;1.37;;;1.27;;
19456;SDS011;9867;48.094;11.478;2023-02-18T05:51:32;1.33;;;1.23;;
19456;SDS011;9867;48.094;11.478;2023-02-18T05:53:59;1.17;;;1.10;;
19456;SDS011;9867;48.094;11.478;2023-02-18T05:56:25;1.30;;;1.20;;
19456;SDS011;9867;48.094;11.478;2023-02-18T05:58:52;1.07;;;1.07;;
19456;SDS011;9867;48.094;11.478;2023-02-18T06:01:18;3.10;;;2.90;;
19456;SDS011;9867;48.094;11.478;2023-02-18T06:03:45;1.87;;;1.77;;
19456;SDS011;9867;48.094;11.478;2023-02-18T06:06:11;1.23;;;1.17;;
19456;SDS011;9867;48.094;11.478;2023-02-18T06:08:37;1.70;;;1.60;;
19456;SDS011;9867;48.094;11.478;2023-02-18T06:11:05;1.00;;;1.00;;
19456;SDS011;9867;48.094;11.478;2023-02-18T06:13:31;1.63;;;1.17;;
19456;SDS011;9867;48.094;11.478;2023-02-18T06:15:57;2.90;;;2.30;;
19456;SDS011;9867;48.094;11.478;2023-02-18T06:18:24;2.07;;;1.87;;
19456;SDS011;9867;48.094;11.478;2023-02-18T06:20:51;2.70;;;2.50;;
19456;SDS011;9867;48.094;11.478;2023-02-18T06:23:17;1.17;;;1.07;;
19456;SDS011;9867;48.094;11.478;2023-02-18T06:25:43;1.43;;;1.33;;
19456;SDS011;9867;48.094;11.478;2023-02-18T06:28:10;1.00;;;1.00;;
19456;SDS011;9867;48.094;11.478;2023-02-18T06:30:37;1.50;;;1.30;;
19456;SDS011;9867;48.094;11.478;2023-02-18T06:33:03;1.40;;;1.30;;
19456;SDS011;9867;48.094;11.478;2023-02-18T06:35:30;1.23;;;1.10;;
19456;SDS011;9867;48.094;11.478;2023-02-18T06:37:56;1.37;;;1.17;;
19456;SDS011;9867;48.094;11.478;2023-02-18T06:40:23;1.10;;;1.10;;
19456;SDS011;9867;48.094;11.478;2023-02-18T06:42:49;1.00;;;1.00;;
19456;SDS011;9867;48.094;11.478;2023-02-18T06:45:17;2.23;;;1.43;;
19456;SDS011;9867;48.094;11.478;2023-02-18T06:47:43;1.23;;;1.13;;
19456;SDS011;9867;48.094;11.478;2023-02-18T06:50:10;1.00;;;1.00;;
19456;SDS011;9867;48.094;11.478;2023-02-18T06:52:36;0.97;;;0.97;;
19456;SDS011;9867;48.094;11.478;2023-02-18T06:55:03;0.83;;;0.83;;
19456;SDS011;9867;48.094;11.478;2023-02-18T06:57:30;0.90;;;0.90;;
19456;SDS011;9867;48.094;11.478;2023-02-18T06:59:56;0.90;;;0.90;;
19456;SDS011;9867;48.094;11.478;2023-02-18T07:02:23;1.20;;;1.10;;
19456;SDS011;9867;48.094;11.478;2023-02-18T07:04:49;1.10;;;1.00;;
19456;SDS011;9867;48.094;11.478;2023-02-18T07:07:16;0.90;;;0.90;;
19456;SDS011;9867;48.094;11.478;2023-02-18T07:09:42;0.90;;;0.90;;
19456;SDS011;9867;48.094;11.478;2023-02-18T07:12:09;2.20;;;0.97;;
19456;SDS011;9867;48.094;11.478;2023-02-18T07:14:35;1.10;;;0.93;;
19456;SDS011;9867;48.094;11.478;2023-02-18T07:17:02;1.47;;;0.90;;
19456;SDS011;9867;48.094;11.478;2023-02-18T07:19:29;2.87;;;0.83;;
19456;SDS011;9867;48.094;11.478;2023-02-18T07:21:55;0.80;;;0.80;;
19456;SDS011;9867;48.094;11.478;2023-02-18T07:24:22;0.57;;;0.57;;
19456;SDS011;9867;48.094;11.478;2023-02-18T07:26:48;1.10;;;1.10;;
19456;SDS011;9867;48.094;11.478;2023-02-18T07:29:17;0.93;;;0.93;;
19456;SDS011;9867;48.094;11.478;2023-02-18T07:31:44;1.10;;;1.10;;
19456;SDS011;9867;48.094;11.478;2023-02-18T07:34:10;1.10;;;1.10;;
19456;SDS011;9867;48.094;11.478;2023-02-18T07:36:37;0.80;;;0.80;;
19456;SDS011;9867;48.094;11.478;2023-02-18T07:39:04;0.90;;;0.90;;
19456;SDS011;9867;48.094;11.478;2023-02-18T07:41:30;1.33;;;1.23;;
19456;SDS011;9867;48.094;11.478;2023-02-18T07:43:57;0.70;;;0.70;;
19456;SDS011;9867;48.094;11.478;2023-02-18T07:46:26;1.10;;;1.10;;
19456;SDS011;9867;48.094;11.478;2023-02-18T07:48:53;1.07;;;0.97;;
19456;SDS011;9867;48.094;11.478;2023-02-18T07:51:19;0.73;;;0.73;;
19456;SDS011;9867;48.094;11.478;2023-02-18T07:53:46;0.67;;;0.67;;
19456;SDS011;9867;48.094;11.478;2023-02-18T07:56:13;1.60;;;0.90;;
19456;SDS011;9867;48.094;11.478;2023-02-18T07:58:39;0.90;;;0.90;;
19456;SDS011;9867;48.094;11.478;2023-02-18T08:01:06;0.83;;;0.83;;
19456;SDS011;9867;48.094;11.478;2023-02-18T08:03:34;0.90;;;0.90;;
19456;SDS011;9867;48.094;11.478;2023-02-18T08:06:01;1.07;;;1.07;;
19456;SDS011;9867;48.094;11.478;2023-02-18T08:08:30;1.10;;;1.00;;
19456;SDS011;9867;48.094;11.478;2023-02-18T08:10:58;0.83;;;0.83;;
19456;SDS011;9867;48.094;11.478;2023-02-18T08:13:38;0.80;;;0.80;;
19456;SDS011;9867;48.094;11.478;2023-02-18T08:16:05;1.13;;;1.03;;
19456;SDS011;9867;48.094;11.478;2023-02-18T08:18:32;1.03;;;1.03;;
19456;SDS011;9867;48.094;11.478;2023-02-18T08:20:58;1.17;;;1.03;;
19456;SDS011;9867;48.094;11.478;2023-02-18T08:23:25;1.80;;;0.80;;
19456;SDS011;9867;48.094;11.478;2023-02-18T08:25:51;0.93;;;0.90;;
19456;SDS011;9867;48.094;11.478;2023-02-18T08:28:20;1.47;;;1.00;;
19456;SDS011;9867;48.094;11.478;2023-02-18T08:30:48;1.00;;;1.00;;
19456;SDS011;9867;48.094;11.478;2023-02-18T08:33:16;0.80;;;0.80;;
19456;SDS011;9867;48.094;11.478;2023-02-18T08:35:43;1.10;;;1.00;;
19456;SDS011;9867;48.094;11.478;2023-02-18T08:38:10;1.23;;;1.10;;
19456;SDS011;9867;48.094;11.478;2023-02-18T08:40:37;0.73;;;0.73;;
19456;SDS011;9867;48.094;11.478;2023-02-18T08:43:05;0.80;;;0.80;;
19456;SDS011;9867;48.094;11.478;2023-02-18T08:45:32;0.90;;;0.90;;
19456;SDS011;9867;48.094;11.478;2023-02-18T08:48:01;1.23;;;1.13;;
19456;SDS011;9867;48.094;11.478;2023-02-18T08:50:45;1.37;;;1.20;;
19456;SDS011;9867;48.094;11.478;2023-02-18T08:53:12;1.30;;;1.20;;
19456;SDS011;9867;48.094;11.478;2023-02-18T08:55:39;0.90;;;0.90;;
19456;SDS011;9867;48.094;11.478;2023-02-18T08:58:06;0.70;;;0.70;;
19456;SDS011;9867;48.094;11.478;2023-02-18T09:00:33;1.20;;;1.20;;
19456;SDS011;9867;48.094;11.478;2023-02-18T09:03:00;1.10;;;1.10;;
19456;SDS011;9867;48.094;11.478;2023-02-18T09:05:27;1.10;;;1.10;;
19456;SDS011;9867;48.094;11.478;2023-02-18T09:07:53;1.17;;;1.17;;
19456;SDS011;9867;48.094;11.478;2023-02-18T09:10:20;1.00;;;1.00;;
19456;SDS011;9867;48.094;11.478;2023-02-18T09:12:46;1.27;;;1.10;;
19456;SDS011;9867;48.094;11.478;2023-02-18T09:15:13;1.03;;;1.03;;
19456;SDS011;9867;48.094;11.478;2023-02-18T09:17:40;1.03;;;1.03;;
19456;SDS011;9867;48.094;11.478;2023-02-18T09:20:07;1.17;;;1.00;;
19456;SDS011;9867;48.094;11.478;2023-02-18T09:22:34;1.10;;;1.00;;
19456;SDS011;9867;48.094;11.478;2023-02-18T09:25:01;1.43;;;1.33;;
19456;SDS011;9867;48.094;11.478;2023-02-18T09:27:28;1.07;;;1.07;;
19456;SDS011;9867;48.094;11.478;2023-02-18T09:29:54;1.47;;;1.37;;
19456;SDS011;9867;48.094;11.478;2023-02-18T09:32:21;1.27;;;1.20;;
19456;SDS011;9867;48.094;11.478;2023-02-18T09:35:00;1.00;;;1.00;;
19456;SDS011;9867;48.094;11.478;2023-02-18T09:37:27;0.90;;;0.90;;
19456;SDS011;9867;48.094;11.478;2023-02-18T09:39:53;1.03;;;1.00;;
19456;SDS011;9867;48.094;11.478;2023-02-18T09:42:20;1.53;;;1.20;;
19456;SDS011;9867;48.094;11.478;2023-02-18T09:44:53;2.83;;;1.20;;
19456;SDS011;9867;48.094;11.478;2023-02-18T09:47:24;1.13;;;1.00;;
19456;SDS011;9867;48.094;11.478;2023-02-18T09:49:57;1.00;;;1.00;;
19456;SDS011;9867;48.094;11.478;2023-02-18T09:52:30;1.10;;;1.10;;
19456;SDS011;9867;48.094;11.478;2023-02-18T09:54:58;1.30;;;1.23;;
19456;SDS011;9867;48.094;11.478;2023-02-18T09:57:45;1.60;;;1.50;;
19456;SDS011;9867;48.094;11.478;2023-02-18T10:00:16;1.07;;;1.07;;
19456;SDS011;9867;48.094;11.478;2023-02-18T10:02:49;1.43;;;1.33;;
19456;SDS011;9867;48.094;11.478;2023-02-18T10:05:21;2.63;;;1.17;;
19456;SDS011;9867;48.094;11.478;2023-02-18T10:07:50;1.00;;;1.00;;
19456;SDS011;9867;48.094;11.478;2023-02-18T10:10:24;1.47;;;1.00;;
19456;SDS011;9867;48.094;11.478;2023-02-18T10:12:58;1.00;;;1.00;;
19456;SDS011;9867;48.094;11.478;2023-02-18T10:15:26;3.13;;;1.10;;
19456;SDS011;9867;48.094;11.478;2023-02-18T10:17:55;2.27;;;1.17;;
19456;SDS011;9867;48.094;11.478;2023-02-18T10:20:23;1.27;;;1.00;;
19456;SDS011;9867;48.094;11.478;2023-02-18T10:22:53;2.27;;;1.27;;
19456;SDS011;9867;48.094;11.478;2023-02-18T10:25:23;2.50;;;1.43;;
19456;SDS011;9867;48.094;11.478;2023-02-18T10:27:51;0.80;;;0.80;;
19456;SDS011;9867;48.094;11.478;2023-02-18T10:30:22;1.07;;;1.00;;
19456;SDS011;9867;48.094;11.478;2023-02-18T10:32:54;1.03;;;1.00;;
19456;SDS011;9867;48.094;11.478;2023-02-18T10:35:28;1.33;;;1.10;;
19456;SDS011;9867;48.094;11.478;2023-02-18T10:38:01;1.43;;;1.20;;
19456;SDS011;9867;48.094;11.478;2023-02-18T10:40:40;0.83;;;0.80;;
19456;SDS011;9867;48.094;11.478;2023-02-18T10:43:17;1.03;;;1.00;;
19456;SDS011;9867;48.094;11.478;2023-02-18T10:45:51;1.43;;;1.20;;
19456;SDS011;9867;48.094;11.478;2023-02-18T10:48:30;2.07;;;1.10;;
19456;SDS011;9867;48.094;11.478;2023-02-18T10:51:12;1.20;;;1.00;;
19456;SDS011;9867;48.094;11.478;2023-02-18T10:53:43;1.13;;;1.03;;
19456;SDS011;9867;48.094;11.478;2023-02-18T10:56:28;2.23;;;1.80;;
19456;SDS011;9867;48.094;11.478;2023-02-18T10:59:00;1.20;;;1.10;;
19456;SDS011;9867;48.094;11.478;2023-02-18T11:01:31;1.77;;;1.00;;
19456;SDS011;9867;48.094;11.478;2023-02-18T11:04:03;1.77;;;1.10;;
19456;SDS011;9867;48.094;11.478;2023-02-18T11:06:34;2.30;;;1.20;;
19456;SDS011;9867;48.094;11.478;2023-02-18T11:09:05;1.97;;;1.00;;
19456;SDS011;9867;48.094;11.478;2023-02-18T11:11:38;0.90;;;0.80;;
19456;SDS011;9867;48.094;11.478;2023-02-18T11:14:06;1.00;;;0.83;;
19456;SDS011;9867;48.094;11.478;2023-02-18T11:16:37;1.50;;;1.30;;
19456;SDS011;9867;48.094;11.478;2023-02-18T11:19:04;3.30;;;1.10;;
19456;SDS011;9867;48.094;11.478;2023-02-18T11:21:53;1.83;;;0.90;;
19456;SDS011;9867;48.094;11.478;2023-02-18T11:24:35;1.60;;;1.10;;
19456;SDS011;9867;48.094;11.478;2023-02-18T11:27:06;1.27;;;1.17;;
19456;SDS011;9867;48.094;11.478;2023-02-18T11:29:34;0.83;;;0.83;;
19456;SDS011;9867;48.094;11.478;2023-02-18T11:32:01;2.03;;;1.10;;
19456;SDS011;9867;48.094;11.478;2023-02-18T11:34:28;1.03;;;0.93;;
19456;SDS011;9867;48.094;11.478;2023-02-18T11:37:06;3.60;;;1.00;;
19456;SDS011;9867;48.094;11.478;2023-02-18T11:39:35;1.80;;;1.30;;
19456;SDS011;9867;48.094;11.478;2023-02-18T11:42:02;1.60;;;1.40;;
19456;SDS011;9867;48.094;11.478;2023-02-18T11:44:32;0.97;;;0.90;;
19456;SDS011;9867;48.094;11.478;2023-02-18T11:47:02;1.33;;;1.00;;
19456;SDS011;9867;48.094;11.478;2023-02-18T11:49:31;0.93;;;0.93;;
19456;SDS011;9867;48.094;11.478;2023-02-18T11:52:03;1.20;;;1.17;;
19456;SDS011;9867;48.094;11.478;2023-02-18T11:54:41;1.67;;;1.20;;
19456;SDS011;9867;48.094;11.478;2023-02-18T11:57:09;0.90;;;0.90;;
19456;SDS011;9867;48.094;11.478;2023-02-18T11:59:39;1.03;;;1.00;;
19456;SDS011;9867;48.094;11.478;2023-02-18T12:02:12;1.00;;;1.00;;
19456;SDS011;9867;48.094;11.478;2023-02-18T12:04:51;1.00;;;0.90;;
19456;SDS011;9867;48.094;11.478;2023-02-18T12:07:22;0.90;;;0.90;;
19456;SDS011;9867;48.094;11.478;2023-02-18T12:09:53;1.17;;;1.07;;
19456;SDS011;9867;48.094;11.478;2023-02-18T12:12:23;1.20;;;0.90;;
19456;SDS011;9867;48.094;11.478;2023-02-18T12:14:53;1.13;;;1.00;;
19456;SDS011;9867;48.094;11.478;2023-02-18T12:20:22;1.97;;;0.90;;
19456;SDS011;9867;48.094;11.478;2023-02-18T12:23:03;1.17;;;1.07;;
19456;SDS011;9867;48.094;11.478;2023-02-18T12:25:40;1.00;;;0.87;;
19456;SDS011;9867;48.094;11.478;2023-02-18T12:28:17;1.77;;;0.90;;
19456;SDS011;9867;48.094;11.478;2023-02-18T12:30:59;2.07;;;1.00;;
19456;SDS011;9867;48.094;11.478;2023-02-18T12:33:43;1.00;;;1.00;;
19456;SDS011;9867;48.094;11.478;2023-02-18T12:36:23;0.83;;;0.83;;
19456;SDS011;9867;48.094;11.478;2023-02-18T12:39:08;0.80;;;0.80;;
19456;SDS011;9867;48.094;11.478;2023-02-18T12:41:45;1.40;;;1.30;;
19456;SDS011;9867;48.094;11.478;2023-02-18T12:44:30;4.00;;;1.00;;
19456;SDS011;9867;48.094;11.478;2023-02-18T12:47:07;1.60;;;1.10;;
19456;SDS011;9867;48.094;11.478;2023-02-18T12:50:21;1.30;;;0.73;;
19456;SDS011;9867;48.094;11.478;2023-02-18T12:53:02;2.17;;;0.87;;
19456;SDS011;9867;48.094;11.478;2023-02-18T12:55:53;0.90;;;0.90;;
19456;SDS011;9867;48.094;11.478;2023-02-18T12:58:34;0.93;;;0.83;;
19456;SDS011;9867;48.094;11.478;2023-02-18T13:01:18;2.20;;;1.13;;
19456;SDS011;9867;48.094;11.478;2023-02-18T13:04:13;1.33;;;0.97;;
19456;SDS011;9867;48.094;11.478;2023-02-18T13:07:22;1.33;;;1.00;;
19456;SDS011;9867;48.094;11.478;2023-02-18T13:13:07;1.10;;;1.00;;
19456;SDS011;9867;48.094;11.478;2023-02-18T13:15:37;2.63;;;1.10;;
19456;SDS011;9867;48.094;11.478;2023-02-18T13:18:09;2.43;;;1.13;;
19456;SDS011;9867;48.094;11.478;2023-02-18T13:20:41;1.53;;;1.00;;
19456;SDS011;9867;48.094;11.478;2023-02-18T13:23:12;2.10;;;0.97;;
19456;SDS011;9867;48.094;11.478;2023-02-18T13:25:43;3.17;;;1.17;;
19456;SDS011;9867;48.094;11.478;2023-02-18T13:28:15;0.93;;;0.93;;
19456;SDS011;9867;48.094;11.478;2023-02-18T13:30:47;0.90;;;0.90;;
19456;SDS011;9867;48.094;11.478;2023-02-18T13:33:18;1.60;;;1.20;;
19456;SDS011;9867;48.094;11.478;2023-02-18T13:35:54;1.57;;;0.90;;
19456;SDS011;9867;48.094;11.478;2023-02-18T13:38:44;1.37;;;1.10;;
19456;SDS011;9867;48.094;11.478;2023-02-18T13:41:18;1.97;;;1.20;;
19456;SDS011;9867;48.094;11.478;2023-02-18T13:43:45;3.53;;;1.43;;
19456;SDS011;9867;48.094;11.478;2023-02-18T13:46:14;1.27;;;1.17;;
19456;SDS011;9867;48.094;11.478;2023-02-18T13:48:44;1.40;;;1.30;;
19456;SDS011;9867;48.094;11.478;2023-02-18T13:51:14;0.90;;;0.90;;
19456;SDS011;9867;48.094;11.478;2023-02-18T13:53:42;1.97;;;1.47;;
19456;SDS011;9867;48.094;11.478;2023-02-18T13:56:19;1.03;;;0.93;;
19456;SDS011;9867;48.094;11.478;2023-02-18T13:58:48;1.30;;;1.20;;
19456;SDS011;9867;48.094;11.478;2023-02-18T14:01:24;1.13;;;1.03;;
19456;SDS011;9867;48.094;11.478;2023-02-18T14:04:31;1.20;;;1.10;;
19456;SDS011;9867;48.094;11.478;2023-02-18T14:07:26;1.90;;;1.37;;
19456;SDS011;9867;48.094;11.478;2023-02-18T14:10:04;1.33;;;1.20;;
19456;SDS011;9867;48.094;11.478;2023-02-18T14:12:59;1.20;;;1.10;;
19456;SDS011;9867;48.094;11.478;2023-02-18T14:15:45;1.10;;;1.10;;
19456;SDS011;9867;48.094;11.478;2023-02-18T14:21:36;1.43;;;1.33;;
19456;SDS011;9867;48.094;11.478;2023-02-18T14:24:05;1.30;;;1.20;;
19456;SDS011;9867;48.094;11.478;2023-02-18T14:26:35;1.33;;;1.23;;
19456;SDS011;9867;48.094;11.478;2023-02-18T14:29:06;1.30;;;1.20;;
19456;SDS011;9867;48.094;11.478;2023-02-18T14:31:41;1.90;;;1.80;;
19456;SDS011;9867;48.094;11.478;2023-02-18T14:34:26;1.50;;;1.17;;
19456;SDS011;9867;48.094;11.478;2023-02-18T14:37:06;2.93;;;1.33;;
19456;SDS011;9867;48.094;11.478;2023-02-18T14:39:46;3.33;;;1.27;;
19456;SDS011;9867;48.094;11.478;2023-02-18T14:42:23;1.37;;;1.27;;
19456;SDS011;9867;48.094;11.478;2023-02-18T14:45:07;1.77;;;1.30;;
19456;SDS011;9867;48.094;11.478;2023-02-18T14:47:45;1.37;;;1.27;;
19456;SDS011;9867;48.094;11.478;2023-02-18T14:50:34;1.60;;;1.50;;
19456;SDS011;9867;48.094;11.478;2023-02-18T14:53:02;1.93;;;1.57;;
19456;SDS011;9867;48.094;11.478;2023-02-18T14:55:32;1.63;;;1.30;;
19456;SDS011;9867;48.094;11.478;2023-02-18T14:58:01;1.83;;;1.00;;
19456;SDS011;9867;48.094;11.478;2023-02-18T15:00:32;1.50;;;1.40;;
19456;SDS011;9867;48.094;11.478;2023-02-18T15:03:00;1.40;;;1.30;;
19456;SDS011;9867;48.094;11.478;2023-02-18T15:05:28;1.50;;;1.40;;
19456;SDS011;9867;48.094;11.478;2023-02-18T15:07:57;2.50;;;1.40;;
19456;SDS011;9867;48.094;11.478;2023-02-18T15:10:32;1.23;;;1.23;;
19456;SDS011;9867;48.094;11.478;2023-02-18T15:13:03;1.63;;;1.30;;
19456;SDS011;9867;48.094;11.478;2023-02-18T15:15:33;1.43;;;1.33;;
19456;SDS011;9867;48.094;11.478;2023-02-18T15:18:00;1.70;;;1.40;;
19456;SDS011;9867;48.094;11.478;2023-02-18T15:20:29;1.20;;;1.10;;
19456;SDS011;9867;48.094;11.478;2023-02-18T15:22:59;1.77;;;1.40;;
19456;SDS011;9867;48.094;11.478;2023-02-18T15:25:26;1.20;;;1.17;;